Ash Shuwayfat, Lebanon
Current Conditions -  °F | °C
As of 1:00 AM on Wednesday 28 Jan 2015 (Local Time) from OLBA Reporting Station
Broken Clouds Broken Clouds  
Wind Chill: 59°   Ceiling: 18000
Heat Index: 59°   Visibility: 6mi
Dew Point: 36°   Wind: 2mph
Humidity: 42%   Direction: 90°E
Pressure: 29.94"   Gusts: NA
Location:  33.81°N, 35.52°E
Report Text: OLBA 272200Z 09002KT 9999 BKN180 15/02 Q1014 NOSIG
Loading
Personal Weather Stations






























Interactive Weather Map New forecast layout! Learn more

10-Day Weather Forecast

Advertisements
Track Severe Weather on mobile